createdAt,value
2019-03-25T00:03:49.711Z,15.88
2019-03-25T00:09:04.838Z,12.18
2019-03-25T00:14:03.298Z,12.68
2019-03-25T00:19:09.259Z,15.40
2019-03-25T00:24:15.084Z,18.00
2019-03-25T00:29:22.038Z,15.45
2019-03-25T00:34:28.039Z,13.78
2019-03-25T00:39:33.833Z,15.03
2019-03-25T00:44:39.568Z,16.57
2019-03-25T00:49:45.422Z,14.38
2019-03-25T00:54:52.189Z,13.50
2019-03-25T00:59:57.981Z,14.75
2019-03-25T01:05:03.867Z,18.20
2019-03-25T01:10:10.008Z,14.80
2019-03-25T01:15:15.752Z,14.07
2019-03-25T01:20:21.706Z,15.18
2019-03-25T01:25:27.546Z,15.00
2019-03-25T01:30:33.350Z,16.42
2019-03-25T01:35:39.094Z,12.68
2019-03-25T01:40:44.877Z,16.10
2019-03-25T01:45:50.611Z,13.62
2019-03-25T01:50:56.477Z,14.78
2019-03-25T01:56:02.425Z,12.87
2019-03-25T02:01:08.265Z,13.50
2019-03-25T02:06:14.044Z,13.32
2019-03-25T02:11:22.210Z,14.38
2019-03-25T02:16:31.033Z,13.18
2019-03-25T02:21:36.927Z,14.53
2019-03-25T02:26:42.850Z,13.30
2019-03-25T02:31:48.654Z,12.82
2019-03-25T02:36:54.429Z,15.72
2019-03-25T02:42:01.189Z,19.05
2019-03-25T02:47:06.919Z,16.40
2019-03-25T02:52:12.854Z,19.30
2019-03-25T02:57:18.970Z,18.87
2019-03-25T03:02:24.843Z,12.93
2019-03-25T03:07:30.578Z,15.93
2019-03-25T03:12:36.589Z,16.32
2019-03-25T03:17:42.324Z,13.90
2019-03-25T03:22:48.116Z,15.13
2019-03-25T03:27:53.883Z,15.47
2019-03-25T03:32:59.701Z,14.15
2019-03-25T03:38:05.510Z,14.93
2019-03-25T03:43:11.259Z,13.10
2019-03-25T03:48:17.486Z,14.68
2019-03-25T03:53:23.256Z,16.12
2019-03-25T03:58:31.152Z,17.90
2019-03-25T04:03:37.980Z,16.25
2019-03-25T04:08:44.157Z,13.10
2019-03-25T04:13:50.076Z,16.32
2019-03-25T04:18:55.876Z,14.27
2019-03-25T04:24:01.669Z,15.78
2019-03-25T04:29:07.409Z,17.32
2019-03-25T04:34:13.148Z,14.78
2019-03-25T04:39:18.903Z,15.83
2019-03-25T04:44:24.997Z,13.90
2019-03-25T04:49:30.825Z,14.13
2019-03-25T04:54:36.690Z,16.55
2019-03-25T04:59:42.651Z,14.78
2019-03-25T05:04:48.395Z,15.25
2019-03-25T05:09:54.154Z,16.52
2019-03-25T05:15:00.980Z,13.98
2019-03-25T05:20:07.352Z,17.98
2019-03-25T05:25:13.334Z,14.78
2019-03-25T05:30:19.453Z,16.35
2019-03-25T05:35:25.376Z,13.88
2019-03-25T05:40:31.254Z,13.30
2019-03-25T05:46:25.085Z,15.03
2019-03-25T05:51:30.830Z,17.03
2019-03-25T05:56:36.699Z,15.48
2019-03-25T06:01:44.230Z,17.02
2019-03-25T06:06:52.169Z,14.60
2019-03-25T06:11:57.728Z,16.95
2019-03-25T06:17:03.649Z,13.70
2019-03-25T06:22:09.384Z,13.17
2019-03-25T06:27:15.390Z,17.23
2019-03-25T06:32:21.244Z,16.75
2019-03-25T06:37:27.102Z,18.55
2019-03-25T06:42:32.948Z,16.55
2019-03-25T06:47:38.770Z,19.20
2019-03-25T06:52:44.978Z,19.67
2019-03-25T06:57:51.080Z,14.28
2019-03-25T07:02:56.948Z,12.75
2019-03-25T07:08:03.006Z,13.83
2019-03-25T07:13:09.182Z,13.68
2019-03-25T07:18:15.036Z,13.55
2019-03-25T07:23:21.081Z,14.03
2019-03-25T07:28:26.930Z,16.10
2019-03-25T07:33:32.855Z,15.38
2019-03-25T07:38:39.543Z,15.95
2019-03-25T07:43:45.385Z,15.32
2019-03-25T07:48:51.251Z,16.32
2019-03-25T07:53:57.096Z,17.40
2019-03-25T07:59:03.033Z,18.77
2019-03-25T08:04:09.769Z,18.17
2019-03-25T08:09:15.580Z,17.73
2019-03-25T08:14:21.415Z,19.67
2019-03-25T08:19:27.268Z,19.70
2019-03-25T08:24:33.403Z,18.55
2019-03-25T08:29:39.330Z,16.80
2019-03-25T08:34:45.601Z,15.67
2019-03-25T08:39:51.603Z,16.10
2019-03-25T08:44:57.421Z,18.67
2019-03-25T08:50:03.639Z,18.33
2019-03-25T08:55:10.006Z,19.27
2019-03-25T09:00:17.054Z,17.30
2019-03-25T09:05:23.887Z,16.00
2019-03-25T09:10:29.723Z,18.65
2019-03-25T09:15:35.527Z,16.37
2019-03-25T09:20:42.841Z,15.67
2019-03-25T09:25:48.639Z,19.83
2019-03-25T09:31:20.875Z,17.40
2019-03-25T09:36:27.041Z,19.82
2019-03-25T09:41:33.204Z,16.87
2019-03-25T09:46:39.066Z,16.60
2019-03-25T09:51:45.027Z,12.07
2019-03-25T09:56:53.750Z,12.20
2019-03-25T10:01:59.614Z,14.23
2019-03-25T10:07:05.465Z,13.20
2019-03-25T10:12:11.501Z,16.23
2019-03-25T10:17:17.263Z,20.68
2019-03-25T10:22:23.136Z,21.70
2019-03-25T10:27:28.962Z,14.73
2019-03-25T10:32:34.800Z,14.30
2019-03-25T10:37:41.393Z,13.60
2019-03-25T10:42:47.489Z,12.83
2019-03-25T10:47:53.278Z,13.60
2019-03-25T10:52:59.153Z,13.75
2019-03-25T10:58:05.298Z,14.65
2019-03-25T11:03:11.080Z,10.98
2019-03-25T11:08:17.244Z,11.20
2019-03-25T11:13:23.410Z,10.35
2019-03-25T11:18:29.258Z,12.35
2019-03-25T11:23:35.169Z,11.83
2019-03-25T11:28:41.104Z,9.98
2019-03-25T11:33:47.126Z,8.93
2019-03-25T11:38:53.999Z,6.45
2019-03-25T11:43:59.838Z,5.87
2019-03-25T11:49:05.749Z,7.80
2019-03-25T11:54:11.979Z,8.18
2019-03-25T11:59:18.783Z,7.05
2019-03-25T12:04:24.871Z,6.90
2019-03-25T12:09:30.665Z,7.50
2019-03-25T12:14:36.536Z,5.83
2019-03-25T12:19:42.339Z,6.00
2019-03-25T12:24:48.200Z,5.20
2019-03-25T12:29:53.959Z,4.60
2019-03-25T12:34:59.826Z,6.55
2019-03-25T12:40:07.970Z,3.87
2019-03-25T12:45:15.105Z,6.70
2019-03-25T12:50:21.000Z,3.03
2019-03-25T12:55:27.110Z,3.67
2019-03-25T13:00:51.217Z,4.55
2019-03-25T13:05:57.018Z,5.22
2019-03-25T13:11:03.132Z,4.58
2019-03-25T13:16:09.171Z,4.43
2019-03-25T13:21:15.558Z,3.58
2019-03-25T13:26:21.515Z,3.47
2019-03-25T13:31:27.540Z,3.47
2019-03-25T13:36:33.541Z,4.63
2019-03-25T13:41:40.474Z,4.12
2019-03-25T13:46:46.341Z,4.30
2019-03-25T13:51:52.308Z,4.92
2019-03-25T13:56:58.971Z,7.17
2019-03-25T14:02:05.290Z,7.28
2019-03-25T14:07:11.141Z,7.60
2019-03-25T14:12:17.032Z,7.33
2019-03-25T14:17:22.914Z,7.70
2019-03-25T14:22:28.865Z,6.87
2019-03-25T14:27:34.687Z,4.53
2019-03-25T14:32:40.606Z,6.50
2019-03-25T14:37:46.502Z,5.78
2019-03-25T14:42:52.806Z,6.25
2019-03-25T14:47:58.600Z,7.25
2019-03-25T14:53:04.457Z,6.03
2019-03-25T14:58:10.705Z,4.62
2019-03-25T15:03:16.522Z,5.67
2019-03-25T15:08:22.631Z,6.25
2019-03-25T15:13:28.493Z,5.72
2019-03-25T15:18:35.010Z,4.33
2019-03-25T15:23:40.827Z,7.90
2019-03-25T15:28:46.604Z,6.05
2019-03-25T15:33:54.006Z,6.10
2019-03-25T15:38:59.912Z,5.90
2019-03-25T15:44:05.817Z,4.22
2019-03-25T15:49:11.574Z,5.03
2019-03-25T15:54:17.441Z,5.25
2019-03-25T15:59:23.403Z,10.27
2019-03-25T16:04:30.015Z,9.27
2019-03-25T16:09:35.880Z,7.70
2019-03-25T16:14:41.667Z,7.85
2019-03-25T16:19:47.604Z,5.50
2019-03-25T16:24:53.644Z,6.72
2019-03-25T16:30:00.558Z,6.87
2019-03-25T16:35:06.755Z,5.75
2019-03-25T16:40:12.612Z,5.20
2019-03-25T16:45:18.537Z,2.87
2019-03-25T16:50:24.439Z,3.72
2019-03-25T16:55:30.520Z,2.45
2019-03-25T17:00:36.356Z,3.37
2019-03-25T17:05:42.565Z,3.60
2019-03-25T17:10:48.516Z,4.00
2019-03-25T17:15:54.645Z,4.07
2019-03-25T17:21:01.470Z,5.35
2019-03-25T17:26:07.204Z,5.20
2019-03-25T17:31:20.949Z,9.18
2019-03-25T17:36:23.720Z,6.72
2019-03-25T17:41:31.265Z,8.78
2019-03-25T17:46:37.080Z,7.33
2019-03-25T17:51:43.127Z,7.05
2019-03-25T17:56:49.061Z,12.00
2019-03-25T18:01:54.944Z,8.53
2019-03-25T18:07:00.831Z,7.70
2019-03-25T18:12:06.775Z,7.50
2019-03-25T18:17:12.548Z,6.72
2019-03-25T18:22:18.316Z,10.43
2019-03-25T18:27:24.385Z,16.40
2019-03-25T18:32:30.483Z,8.93
2019-03-25T18:37:36.275Z,11.28
2019-03-25T18:42:42.453Z,7.08
2019-03-25T18:47:48.507Z,4.50
2019-03-25T18:52:56.731Z,5.60
2019-03-25T18:58:01.887Z,3.90
2019-03-25T19:03:07.851Z,6.47
2019-03-25T19:08:13.961Z,4.15
2019-03-25T19:13:19.902Z,12.88
2019-03-25T19:18:26.030Z,19.82
2019-03-25T19:23:31.816Z,10.13
2019-03-25T19:28:37.825Z,10.73
2019-03-25T19:33:44.009Z,6.28
2019-03-25T19:38:50.985Z,8.85
2019-03-25T19:43:57.081Z,11.00
2019-03-25T19:49:03.062Z,4.65
2019-03-25T19:54:09.053Z,4.05
2019-03-25T19:59:15.191Z,5.97
2019-03-25T20:04:21.411Z,7.67
2019-03-25T20:09:27.927Z,5.45
2019-03-25T20:14:33.960Z,6.05
2019-03-25T20:19:41.994Z,13.10
2019-03-25T20:24:47.797Z,3.00
2019-03-25T20:29:54.447Z,5.45
2019-03-25T20:35:00.672Z,3.40
2019-03-25T20:40:07.677Z,2.25
2019-03-25T20:45:14.250Z,5.90
2019-03-25T20:50:20.629Z,4.72
2019-03-25T20:55:26.434Z,4.53
2019-03-25T21:01:12.596Z,4.40
2019-03-25T21:06:19.760Z,5.62
2019-03-25T21:11:25.682Z,5.00
2019-03-25T21:16:32.263Z,5.65
2019-03-25T21:21:39.030Z,5.45
2019-03-25T21:26:45.635Z,5.20
2019-03-25T21:31:53.091Z,5.97
2019-03-25T21:37:00.556Z,5.50
2019-03-25T21:42:06.900Z,7.62
2019-03-25T21:47:13.246Z,16.65
2019-03-25T21:52:19.152Z,7.42
2019-03-25T21:57:25.151Z,7.40
2019-03-25T22:02:30.923Z,11.53
2019-03-25T22:07:37.166Z,11.83
2019-03-25T22:12:43.006Z,7.20
2019-03-25T22:17:49.074Z,10.40
2019-03-25T22:22:55.053Z,19.60
2019-03-25T22:28:01.069Z,25.97
2019-03-25T22:33:07.515Z,16.07
2019-03-25T22:38:14.699Z,12.30
2019-03-25T22:43:20.772Z,16.52
2019-03-25T22:48:27.358Z,11.50
2019-03-25T22:53:33.364Z,16.70
2019-03-25T22:58:41.716Z,15.87
2019-03-25T23:03:47.751Z,15.68
2019-03-25T23:08:54.426Z,12.35
2019-03-25T23:14:00.621Z,12.20
2019-03-25T23:19:06.772Z,10.13
2019-03-25T23:24:12.850Z,17.75
2019-03-25T23:29:18.824Z,11.90
2019-03-25T23:34:25.154Z,11.35
2019-03-25T23:39:31.284Z,14.63
2019-03-25T23:44:37.809Z,13.20
2019-03-25T23:49:43.653Z,11.12
2019-03-25T23:54:49.462Z,13.43
2019-03-25T23:59:55.418Z,12.43
